Time;durP1;ratioP1;P1;durP2;ratioP2;P2;SDS_P1;SDS_P2;PMS_P1;PMS_P2;Temp;Humidity;BMP_temperature;BMP_pressure;BME280_temperature;BME280_humidity;BME280_pressure;Samples;Min_cycle;Max_cycle;Signal;HPM_P1;HPM_P2
2021/09/25 00:00:15;;;;;;;;;;;18.40;99.00;;;;;;4975448;28;20085;-72
2021/09/25 00:02:40;;;;;;;10.73;6.97;;;18.40;98.90;;;;;;4974385;28;19909;-73
2021/09/25 00:05:06;;;;;;;12.15;7.22;;;18.40;99.00;;;;;;4974599;28;20516;-72
2021/09/25 00:07:32;;;;;;;11.02;6.88;;;18.40;99.00;;;;;;4974498;28;20031;-72
2021/09/25 00:09:58;;;;;;;12.20;7.28;;;18.40;99.00;;;;;;4974224;28;20465;-71
2021/09/25 00:12:23;;;;;;;18.10;8.05;;;18.40;99.10;;;;;;4974470;28;20031;-71
2021/09/25 00:14:49;;;;;;;14.05;7.60;;;18.40;99.20;;;;;;4975066;28;20114;-72
2021/09/25 00:17:15;;;;;;;14.70;7.72;;;18.40;99.10;;;;;;4974904;28;20039;-73
2021/09/25 00:19:42;;;;;;;11.27;7.00;;;18.40;99.10;;;;;;4974666;28;20041;-73
2021/09/25 00:22:08;;;;;;;13.80;7.53;;;18.40;99.20;;;;;;4974486;28;20035;-73
2021/09/25 00:24:33;;;;;;;19.58;7.63;;;18.40;99.20;;;;;;4974340;28;20049;-73
2021/09/25 00:26:59;;;;;;;17.38;7.72;;;18.40;99.20;;;;;;4974790;28;20062;-73
2021/09/25 00:29:25;;;;;;;14.65;7.63;;;18.40;99.20;;;;;;4974311;28;20045;-73
2021/09/25 00:31:51;;;;;;;14.10;7.93;;;18.40;99.30;;;;;;4974456;28;20027;-73
2021/09/25 00:34:17;;;;;;;13.77;7.82;;;18.40;99.30;;;;;;4974360;28;20515;-72
2021/09/25 00:36:42;;;;;;;16.77;7.93;;;18.40;99.30;;;;;;4974096;28;20114;-73
2021/09/25 00:39:08;;;;;;;12.23;7.70;;;18.40;99.30;;;;;;4974126;28;20030;-72
2021/09/25 00:41:34;;;;;;;13.27;7.82;;;18.40;99.30;;;;;;4973611;28;20353;-72
2021/09/25 00:43:59;;;;;;;13.75;8.15;;;18.40;99.30;;;;;;4972766;28;20031;-72
2021/09/25 00:46:25;;;;;;;18.58;8.00;;;18.40;99.40;;;;;;4974147;28;20045;-72
2021/09/25 00:48:51;;;;;;;15.23;9.10;;;18.40;99.50;;;;;;4973694;28;20034;-73
2021/09/25 00:51:17;;;;;;;13.63;8.05;;;18.40;99.50;;;;;;4973539;28;20019;-73
2021/09/25 00:53:43;;;;;;;15.70;8.52;;;18.40;99.60;;;;;;4974466;28;20120;-72
2021/09/25 00:56:10;;;;;;;12.50;8.38;;;18.30;99.60;;;;;;4973699;28;20047;-72
2021/09/25 00:58:37;;;;;;;15.73;8.50;;;18.30;99.70;;;;;;4973845;28;20034;-72
2021/09/25 01:01:04;;;;;;;17.77;8.55;;;18.40;99.90;;;;;;4973658;28;20121;-73
2021/09/25 01:03:30;;;;;;;16.85;9.18;;;18.40;99.60;;;;;;4973882;28;20043;-73
2021/09/25 01:05:55;;;;;;;14.15;9.18;;;18.40;99.70;;;;;;4973970;28;20027;-73
2021/09/25 01:08:23;;;;;;;14.60;9.00;;;18.40;99.70;;;;;;4973187;28;20114;-73
2021/09/25 01:10:53;;;;;;;15.35;9.55;;;18.40;99.70;;;;;;4973511;28;20043;-73
2021/09/25 01:13:20;;;;;;;15.77;8.82;;;18.40;99.70;;;;;;4973464;28;20465;-72
2021/09/25 01:15:46;;;;;;;18.87;10.47;;;18.30;99.70;;;;;;4973670;28;20038;-73
2021/09/25 01:18:12;;;;;;;19.30;10.82;;;18.30;99.90;;;;;;4973245;28;20031;-72
2021/09/25 01:20:38;;;;;;;19.42;10.25;;;18.30;99.80;;;;;;4973629;28;20437;-73
2021/09/25 01:23:04;;;;;;;20.23;10.10;;;18.30;99.90;;;;;;4973390;28;20027;-72
2021/09/25 01:25:31;;;;;;;15.40;9.48;;;18.30;99.90;;;;;;4973374;28;20039;-72
2021/09/25 01:27:56;;;;;;;17.70;10.13;;;18.30;99.90;;;;;;4973121;28;20030;-72
2021/09/25 01:30:22;;;;;;;17.60;9.32;;;18.30;99.90;;;;;;4972777;28;20110;-72
2021/09/25 01:32:49;;;;;;;15.10;9.88;;;18.30;99.90;;;;;;4973580;28;20114;-72
2021/09/25 01:35:17;;;;;;;19.27;10.23;;;18.30;99.90;;;;;;4972794;28;20094;-72
2021/09/25 01:37:47;;;;;;;13.50;9.23;;;18.20;99.90;;;;;;4986270;28;20049;-73
2021/09/25 01:40:14;;;;;;;15.98;9.63;;;18.30;99.90;;;;;;4992664;28;20142;-72
2021/09/25 01:42:40;;;;;;;14.43;8.63;;;18.30;99.90;;;;;;4992393;28;20042;-72
2021/09/25 01:45:06;;;;;;;13.20;8.43;;;18.30;99.80;;;;;;4992674;28;20036;-73
2021/09/25 01:47:32;;;;;;;13.82;9.02;;;18.30;99.80;;;;;;4992693;28;20114;-73
2021/09/25 01:50:00;;;;;;;13.93;8.88;;;18.30;99.80;;;;;;4992287;28;20128;-72
2021/09/25 01:52:27;;;;;;;20.00;9.35;;;18.30;99.80;;;;;;4992149;28;20465;-72
2021/09/25 01:54:52;;;;;;;16.17;8.57;;;18.30;99.80;;;;;;4985727;28;20457;-72
2021/09/25 01:57:18;;;;;;;14.30;8.10;;;18.30;99.70;;;;;;4974995;28;20023;-72
2021/09/25 01:59:44;;;;;;;12.73;8.23;;;18.30;99.70;;;;;;4992536;28;20026;-72
2021/09/25 02:02:11;;;;;;;11.35;8.20;;;18.30;99.70;;;;;;4992099;28;20034;-72
2021/09/25 02:04:37;;;;;;;12.48;7.95;;;18.30;99.70;;;;;;4991332;28;20034;-72
2021/09/25 02:07:03;;;;;;;11.13;7.60;;;18.30;99.70;;;;;;4991723;28;20049;-72
2021/09/25 02:09:29;;;;;;;11.45;7.40;;;18.30;99.60;;;;;;4991623;28;20048;-72
2021/09/25 02:11:55;;;;;;;13.30;8.18;;;18.30;99.60;;;;;;4991285;28;20386;-72
2021/09/25 02:14:21;;;;;;;14.02;8.10;;;18.30;99.60;;;;;;4991903;28;20118;-72
2021/09/25 02:16:46;;;;;;;12.60;8.02;;;18.30;99.60;;;;;;4990851;28;20034;-71
2021/09/25 02:19:12;;;;;;;15.90;9.10;;;18.30;99.60;;;;;;4992010;28;20034;-71
2021/09/25 02:21:37;;;;;;;13.43;8.63;;;18.20;99.60;;;;;;4991956;28;20037;-71
2021/09/25 02:24:03;;;;;;;14.90;8.77;;;18.20;99.70;;;;;;4990563;28;20026;-69
2021/09/25 02:26:29;;;;;;;16.65;9.77;;;18.20;99.70;;;;;;4992193;28;20448;-73
2021/09/25 02:28:55;;;;;;;15.13;9.10;;;18.20;99.70;;;;;;4992131;28;20034;-72
2021/09/25 02:31:20;;;;;;;13.00;8.75;;;18.20;99.70;;;;;;4991913;28;20269;-72
2021/09/25 02:33:47;;;;;;;14.38;9.25;;;18.20;99.80;;;;;;4991768;28;20038;-72
2021/09/25 02:36:13;;;;;;;16.15;9.77;;;18.20;99.70;;;;;;4991566;28;20022;-71
2021/09/25 02:38:38;;;;;;;16.98;10.35;;;18.20;99.80;;;;;;4992097;28;20034;-72
2021/09/25 02:41:04;;;;;;;17.67;10.32;;;18.20;99.70;;;;;;4991505;28;20030;-71
2021/09/25 02:43:30;;;;;;;14.60;10.18;;;18.30;99.70;;;;;;4991580;28;20077;-72
2021/09/25 02:45:55;;;;;;;16.02;10.32;;;18.30;99.70;;;;;;4991721;28;20073;-72
2021/09/25 02:48:21;;;;;;;17.52;10.55;;;18.20;99.70;;;;;;4991569;28;20054;-72
2021/09/25 02:50:47;;;;;;;20.50;11.00;;;18.20;99.80;;;;;;4992057;28;20038;-72
2021/09/25 02:53:12;;;;;;;16.02;10.57;;;18.20;99.90;;;;;;4991548;28;20034;-72
2021/09/25 02:55:38;;;;;;;17.52;12.07;;;18.20;99.90;;;;;;4991631;28;20023;-72
2021/09/25 02:58:04;;;;;;;19.08;11.63;;;18.00;99.90;;;;;;4991695;28;20027;-72
2021/09/25 03:00:30;;;;;;;15.93;11.35;;;18.00;99.90;;;;;;4991366;28;20039;-72
2021/09/25 03:02:56;;;;;;;16.83;11.85;;;18.10;99.90;;;;;;4992007;28;20057;-72
2021/09/25 03:05:21;;;;;;;20.90;12.32;;;18.00;99.90;;;;;;4991528;28;20098;-72
2021/09/25 03:07:47;;;;;;;24.35;11.60;;;18.10;99.90;;;;;;4991456;28;20041;-72
2021/09/25 03:10:13;;;;;;;17.52;12.07;;;18.10;99.90;;;;;;4991283;28;20103;-72
2021/09/25 03:12:38;;;;;;;16.15;11.95;;;18.10;99.90;;;;;;4991423;28;20038;-71
2021/09/25 03:15:06;;;;;;;15.73;11.82;;;18.10;99.90;;;;;;4992807;28;20030;-71
2021/09/25 03:17:32;;;;;;;20.77;11.50;;;18.10;99.90;;;;;;4995347;28;20019;-72
2021/09/25 03:19:57;;;;;;;17.48;12.38;;;18.20;99.90;;;;;;4995133;28;20054;-71
2021/09/25 03:22:23;;;;;;;19.00;12.23;;;18.10;99.90;;;;;;4994847;28;20038;-71
2021/09/25 03:24:48;;;;;;;17.38;12.07;;;18.10;99.90;;;;;;4995006;28;20114;-71
2021/09/25 03:27:14;;;;;;;16.10;11.95;;;18.10;99.90;;;;;;4994719;28;20026;-72
2021/09/25 03:29:39;;;;;;;16.45;11.15;;;18.10;99.90;;;;;;4995112;28;20100;-70
2021/09/25 03:32:06;;;;;;;19.65;11.23;;;18.00;99.90;;;;;;4994753;28;20144;-71
2021/09/25 03:34:32;;;;;;;15.55;11.20;;;18.00;99.90;;;;;;4994829;28;20043;-72
2021/09/25 03:36:58;;;;;;;19.67;12.43;;;18.00;99.90;;;;;;4994881;28;20026;-72
2021/09/25 03:39:23;;;;;;;19.15;11.90;;;18.00;99.90;;;;;;4994634;28;20094;-71
2021/09/25 03:41:49;;;;;;;16.75;11.80;;;18.00;99.90;;;;;;4995116;28;20030;-71
2021/09/25 03:44:15;;;;;;;17.33;11.43;;;18.00;99.90;;;;;;4994601;28;20031;-72
2021/09/25 03:46:41;;;;;;;18.17;11.30;;;18.00;99.90;;;;;;4994507;28;20109;-71
2021/09/25 03:49:06;;;;;;;19.80;10.95;;;17.90;99.90;;;;;;4994649;28;20050;-71
2021/09/25 03:51:32;;;;;;;17.42;9.85;;;18.00;99.90;;;;;;4994305;28;20113;-71
2021/09/25 03:53:58;;;;;;;19.98;11.93;;;18.00;99.90;;;;;;4994986;28;20026;-72
2021/09/25 03:56:23;;;;;;;18.70;11.38;;;18.00;99.90;;;;;;4994375;28;20034;-73
2021/09/25 03:58:50;;;;;;;18.52;12.05;;;18.00;99.90;;;;;;4994361;28;20088;-72
2021/09/25 04:01:15;;;;;;;19.33;11.43;;;18.00;99.90;;;;;;4994348;28;20045;-72
2021/09/25 04:03:41;;;;;;;24.45;11.80;;;18.00;99.90;;;;;;4994156;28;20038;-72
2021/09/25 04:06:06;;;;;;;20.95;11.15;;;18.00;99.90;;;;;;4993048;28;20046;-71
2021/09/25 04:08:32;;;;;;;20.00;10.98;;;18.00;99.90;;;;;;4993987;28;20043;-72
2021/09/25 04:10:58;;;;;;;16.33;10.60;;;18.00;99.90;;;;;;4994226;28;20026;-71
2021/09/25 04:13:24;;;;;;;16.35;10.48;;;18.00;99.90;;;;;;4994032;28;20161;-72
2021/09/25 04:15:49;;;;;;;18.83;10.02;;;18.00;99.90;;;;;;4994075;28;20378;-71
2021/09/25 04:18:15;;;;;;;19.02;10.85;;;18.00;99.90;;;;;;4994080;28;20094;-72
2021/09/25 04:20:41;;;;;;;16.20;10.30;;;18.00;99.90;;;;;;4994428;28;20363;-71
2021/09/25 04:23:06;;;;;;;22.23;9.48;;;17.90;99.90;;;;;;4993787;28;20038;-71
2021/09/25 04:25:32;;;;;;;17.65;9.85;;;18.00;99.90;;;;;;4994006;28;20621;-73
2021/09/25 04:28:00;;;;;;;16.35;9.90;;;18.00;99.90;;;;;;4993336;28;20465;-71
2021/09/25 04:30:25;;;;;;;16.17;9.48;;;18.00;99.90;;;;;;4993618;28;20042;-72
2021/09/25 04:32:51;;;;;;;13.68;9.55;;;18.00;99.90;;;;;;4994320;28;20027;-71
2021/09/25 04:35:18;;;;;;;24.17;8.98;;;18.00;99.90;;;;;;4993664;28;20030;-72
2021/09/25 04:37:44;;;;;;;16.48;10.05;;;18.00;99.90;;;;;;4993510;28;20070;-72
2021/09/25 04:40:10;;;;;;;26.80;9.32;;;18.00;99.90;;;;;;4993840;28;20049;-72
2021/09/25 04:42:35;;;;;;;19.15;9.70;;;18.00;99.90;;;;;;4993331;28;20138;-72
2021/09/25 04:45:02;;;;;;;15.05;9.57;;;18.00;99.90;;;;;;4994028;28;20125;-72
2021/09/25 04:47:28;;;;;;;15.40;9.88;;;18.10;99.90;;;;;;4993458;28;20077;-72
2021/09/25 04:49:53;;;;;;;16.73;9.32;;;18.00;99.90;;;;;;4993216;28;20054;-72
2021/09/25 04:52:19;;;;;;;16.70;9.27;;;18.00;99.90;;;;;;4992371;28;20161;-71
2021/09/25 04:54:44;;;;;;;16.25;9.35;;;18.00;99.90;;;;;;4992261;28;20042;-71
2021/09/25 04:57:10;;;;;;;16.40;9.52;;;18.00;99.90;;;;;;4993209;28;20034;-71
2021/09/25 04:59:35;;;;;;;12.68;9.10;;;18.00;99.90;;;;;;4993442;28;20026;-71
2021/09/25 05:02:02;;;;;;;16.23;9.07;;;18.00;99.90;;;;;;4993039;28;20507;-71
2021/09/25 05:04:27;;;;;;;16.15;8.88;;;18.10;99.90;;;;;;4993138;28;20246;-71
2021/09/25 05:06:53;;;;;;;19.48;10.27;;;18.00;99.90;;;;;;4992695;28;20110;-72
2021/09/25 05:09:19;;;;;;;14.82;9.07;;;18.00;99.90;;;;;;4992582;28;20051;-71
2021/09/25 05:11:45;;;;;;;14.18;8.48;;;18.00;99.90;;;;;;4993355;28;20018;-71
2021/09/25 05:14:10;;;;;;;16.73;8.65;;;18.00;99.90;;;;;;4992937;28;20049;-73
2021/09/25 05:16:36;;;;;;;15.15;8.85;;;18.00;99.90;;;;;;4992467;28;20023;-72
2021/09/25 05:19:02;;;;;;;20.98;8.70;;;18.00;99.90;;;;;;4992969;28;20065;-73
2021/09/25 05:21:27;;;;;;;15.88;8.63;;;18.00;99.90;;;;;;4992614;28;20026;-72
2021/09/25 05:23:53;;;;;;;17.05;8.60;;;18.00;99.80;;;;;;4992047;28;20034;-72
2021/09/25 05:26:18;;;;;;;14.50;8.45;;;18.00;99.80;;;;;;4992895;28;20030;-72
2021/09/25 05:28:44;;;;;;;15.70;7.85;;;18.00;99.80;;;;;;4992539;28;20060;-72
2021/09/25 05:31:12;;;;;;;13.68;8.05;;;18.00;99.80;;;;;;4991470;28;20527;-71
2021/09/25 05:33:38;;;;;;;14.93;7.45;;;18.00;99.70;;;;;;4992762;28;20034;-71
2021/09/25 05:36:04;;;;;;;15.07;8.00;;;18.00;99.70;;;;;;4992165;28;20022;-71
2021/09/25 05:38:29;;;;;;;12.73;7.45;;;18.10;99.80;;;;;;4991962;28;20022;-72
2021/09/25 05:40:55;;;;;;;13.45;8.70;;;18.00;99.70;;;;;;4992165;28;20034;-72
2021/09/25 05:43:20;;;;;;;14.70;8.15;;;18.10;99.70;;;;;;4992302;28;20418;-73
2021/09/25 05:45:46;;;;;;;17.38;7.60;;;18.10;99.70;;;;;;4992003;28;20035;-72
2021/09/25 05:48:12;;;;;;;14.20;8.20;;;18.20;99.70;;;;;;4992091;28;20026;-71
2021/09/25 05:50:37;;;;;;;19.50;9.65;;;18.10;99.60;;;;;;4992350;28;20031;-72
2021/09/25 05:53:03;;;;;;;13.40;8.48;;;18.10;99.60;;;;;;4991946;28;20453;-72
2021/09/25 05:55:29;;;;;;;16.00;8.77;;;18.10;99.70;;;;;;4988898;28;20066;-72
2021/09/25 05:57:58;;;;;;;12.27;7.60;;;18.10;99.60;;;;;;4992395;28;20034;-72
2021/09/25 06:00:24;;;;;;;13.70;7.00;;;18.10;99.90;;;;;;4992130;28;20097;-72
2021/09/25 06:02:50;;;;;;;17.10;8.25;;;18.20;99.70;;;;;;4992497;28;20030;-72
2021/09/25 06:05:15;;;;;;;12.73;7.50;;;18.10;99.60;;;;;;4992110;28;20046;-71
2021/09/25 06:07:41;;;;;;;12.32;7.28;;;18.20;99.60;;;;;;4991885;28;20041;-72
2021/09/25 06:10:07;;;;;;;10.27;6.85;;;18.20;99.60;;;;;;4991778;28;20046;-72
2021/09/25 06:12:33;;;;;;;14.18;8.15;;;18.20;99.70;;;;;;4991951;28;20048;-72
2021/09/25 06:14:59;;;;;;;13.70;7.75;;;18.20;99.60;;;;;;4992524;28;20038;-73
2021/09/25 06:17:25;;;;;;;13.60;7.93;;;18.20;99.50;;;;;;4992060;28;20054;-73
2021/09/25 06:19:50;;;;;;;9.52;6.68;;;18.20;99.60;;;;;;4992019;28;20026;-72
2021/09/25 06:22:16;;;;;;;16.08;7.65;;;18.20;99.50;;;;;;4992306;28;20046;-72
2021/09/25 06:24:42;;;;;;;12.23;6.70;;;18.20;99.60;;;;;;4991953;28;20080;-71
2021/09/25 06:27:08;;;;;;;13.88;7.50;;;18.20;99.50;;;;;;4991723;28;20356;-71
2021/09/25 06:29:34;;;;;;;12.75;7.20;;;18.20;99.50;;;;;;4992051;28;20038;-71
2021/09/25 06:32:00;;;;;;;19.55;7.18;;;18.20;99.50;;;;;;4991942;28;20497;-72
2021/09/25 06:34:25;;;;;;;12.25;6.85;;;18.30;99.50;;;;;;4991772;28;20041;-72
2021/09/25 06:36:51;;;;;;;14.10;6.63;;;18.20;99.40;;;;;;4991590;28;20453;-71
2021/09/25 06:39:17;;;;;;;22.88;11.75;;;18.30;99.40;;;;;;4991617;28;20030;-71
2021/09/25 06:41:43;;;;;;;14.10;7.60;;;18.30;99.40;;;;;;4992291;28;20027;-72
2021/09/25 06:44:08;;;;;;;10.98;6.85;;;18.30;99.30;;;;;;4991452;28;20031;-71
2021/09/25 06:46:34;;;;;;;15.57;7.10;;;18.30;99.40;;;;;;4991524;28;20392;-71
2021/09/25 06:49:00;;;;;;;15.82;7.38;;;18.30;99.30;;;;;;4991631;28;20041;-72
2021/09/25 06:51:27;;;;;;;24.13;10.73;;;18.30;99.30;;;;;;4994010;28;20504;-71
2021/09/25 06:53:53;;;;;;;14.40;8.07;;;18.40;99.20;;;;;;4995488;28;20053;-71
2021/09/25 06:56:19;;;;;;;12.20;6.72;;;18.40;99.10;;;;;;4994156;28;20101;-73
2021/09/25 06:58:45;;;;;;;10.57;6.60;;;18.40;99.10;;;;;;4994968;28;20038;-72
2021/09/25 07:01:10;;;;;;;9.55;5.75;;;18.40;99.10;;;;;;4995367;28;20125;-72
2021/09/25 07:03:36;;;;;;;10.00;6.75;;;18.30;99.00;;;;;;4995096;28;20054;-72
2021/09/25 07:06:01;;;;;;;12.82;6.88;;;18.30;99.10;;;;;;4994235;28;20343;-73
2021/09/25 07:08:27;;;;;;;13.05;6.47;;;18.30;99.00;;;;;;4994935;28;20089;-72
2021/09/25 07:10:52;;;;;;;12.82;6.50;;;18.30;99.10;;;;;;4995330;28;20034;-72
2021/09/25 07:13:18;;;;;;;12.02;6.50;;;18.40;99.10;;;;;;4995095;28;20390;-73
2021/09/25 07:15:43;;;;;;;11.15;6.40;;;18.40;99.10;;;;;;4994950;28;20503;-74
2021/09/25 07:18:10;;;;;;;11.07;6.30;;;18.40;99.00;;;;;;4994866;28;20437;-70
2021/09/25 07:20:36;;;;;;;13.70;6.55;;;18.40;99.00;;;;;;4995173;28;20081;-72
2021/09/25 07:23:02;;;;;;;16.92;7.05;;;18.30;98.90;;;;;;4994726;28;20049;-72
2021/09/25 07:25:28;;;;;;;12.18;6.43;;;18.40;99.00;;;;;;4994809;28;20030;-71
2021/09/25 07:27:55;;;;;;;10.63;6.32;;;18.50;99.00;;;;;;4994861;28;20092;-71
2021/09/25 07:30:21;;;;;;;10.60;6.88;;;18.50;99.00;;;;;;4994428;28;20030;-73
2021/09/25 07:32:47;;;;;;;11.85;6.57;;;18.60;99.00;;;;;;4995235;28;20033;-72
2021/09/25 07:35:14;;;;;;;11.70;6.53;;;18.60;99.00;;;;;;4994747;28;20026;-72
2021/09/25 07:37:40;;;;;;;9.43;6.57;;;18.60;99.00;;;;;;4994470;28;20038;-72
2021/09/25 07:40:07;;;;;;;15.50;6.57;;;18.60;98.90;;;;;;4994750;28;20034;-71
2021/09/25 07:42:33;;;;;;;14.10;6.18;;;18.60;98.90;;;;;;4994482;28;20038;-73
2021/09/25 07:44:58;;;;;;;10.80;5.75;;;18.60;98.90;;;;;;4995003;28;20022;-75
2021/09/25 07:47:24;;;;;;;13.13;6.22;;;18.60;99.00;;;;;;4993536;28;20381;-73
2021/09/25 07:49:50;;;;;;;10.10;5.55;;;18.60;98.90;;;;;;4994564;28;20041;-73
2021/09/25 07:52:16;;;;;;;11.70;5.85;;;18.60;98.70;;;;;;4992970;28;20034;-74
2021/09/25 07:54:42;;;;;;;13.75;5.22;;;18.60;98.70;;;;;;4994397;28;20034;-73
2021/09/25 07:57:11;;;;;;;9.98;4.97;;;18.70;98.70;;;;;;4993140;28;20089;-73
2021/09/25 07:59:36;;;;;;;15.13;9.95;;;18.70;98.60;;;;;;4994833;28;20034;-72
2021/09/25 08:02:02;;;;;;;10.50;5.35;;;18.80;98.50;;;;;;4993265;28;20110;-72
2021/09/25 08:04:28;;;;;;;7.05;3.90;;;18.80;98.50;;;;;;4994402;28;20038;-73
2021/09/25 08:06:53;;;;;;;9.57;4.80;;;18.80;98.20;;;;;;4994096;28;20057;-74
2021/09/25 08:09:21;;;;;;;7.47;4.72;;;18.70;98.20;;;;;;4993392;28;20117;-71
2021/09/25 08:11:48;;;;;;;8.93;4.57;;;18.80;98.30;;;;;;4994453;28;20022;-72
2021/09/25 08:14:14;;;;;;;9.20;4.28;;;18.90;98.30;;;;;;4994062;28;20046;-73
2021/09/25 08:16:40;;;;;;;11.73;4.20;;;18.90;98.10;;;;;;4994136;28;20038;-73
2021/09/25 08:19:06;;;;;;;9.48;4.53;;;18.90;98.00;;;;;;4993868;28;20030;-74
2021/09/25 08:21:31;;;;;;;6.53;3.85;;;18.90;97.80;;;;;;4993920;28;20030;-73
2021/09/25 08:23:57;;;;;;;7.90;3.83;;;18.80;97.70;;;;;;4994015;28;20417;-71
2021/09/25 08:26:23;;;;;;;8.75;4.20;;;19.00;97.90;;;;;;4993927;28;20104;-72
2021/09/25 08:28:48;;;;;;;11.00;4.60;;;19.00;97.60;;;;;;4991705;28;20376;-72
2021/09/25 08:31:14;;;;;;;9.30;4.25;;;19.00;97.60;;;;;;4974278;28;20034;-73
2021/09/25 08:33:40;;;;;;;7.70;4.43;;;19.10;97.70;;;;;;4974279;28;20035;-73
2021/09/25 08:36:05;;;;;;;15.70;4.28;;;19.20;97.60;;;;;;4974205;28;20352;-73
2021/09/25 08:38:31;;;;;;;14.30;4.82;;;19.20;97.40;;;;;;4974505;28;20022;-72
2021/09/25 08:40:58;;;;;;;9.38;4.38;;;19.20;97.40;;;;;;4974007;28;20342;-71
2021/09/25 08:43:25;;;;;;;10.38;5.03;;;19.30;97.30;;;;;;4974003;28;20034;-72
2021/09/25 08:46:02;;;;;;;9.82;4.88;;;19.30;97.30;;;;;;4973887;28;20031;-72
2021/09/25 08:48:29;;;;;;;9.37;4.53;;;19.50;97.40;;;;;;4973839;28;20026;-74
2021/09/25 08:50:55;;;;;;;11.30;6.85;;;19.60;97.30;;;;;;4974015;28;20030;-72
2021/09/25 08:53:21;;;;;;;8.82;4.93;;;19.80;97.10;;;;;;4973840;28;20035;-72
2021/09/25 08:55:47;;;;;;;10.82;4.35;;;19.90;96.70;;;;;;4973623;28;20458;-72
2021/09/25 08:58:12;;;;;;;8.30;4.55;;;20.10;96.50;;;;;;4973673;28;20038;-73
2021/09/25 09:00:40;;;;;;;7.68;4.13;;;20.20;96.20;;;;;;4973474;28;20377;-73
2021/09/25 09:03:19;;;;;;;9.80;4.22;;;20.30;96.20;;;;;;4973490;28;20412;-72
2021/09/25 09:05:45;;;;;;;9.73;4.72;;;20.40;96.30;;;;;;4973902;28;20026;-72
2021/09/25 09:08:11;;;;;;;9.85;4.07;;;20.50;96.00;;;;;;4972987;28;20034;-72
2021/09/25 09:10:37;;;;;;;13.68;4.95;;;20.50;95.80;;;;;;4972342;28;20062;-75
2021/09/25 09:13:05;;;;;;;9.82;3.88;;;20.60;95.80;;;;;;4973332;28;20051;-74
2021/09/25 09:15:38;;;;;;;11.43;4.75;;;20.60;95.70;;;;;;4973648;28;20441;-74
2021/09/25 09:18:12;;;;;;;12.68;4.30;;;20.60;95.80;;;;;;4973390;28;20512;-76
2021/09/25 09:20:39;;;;;;;9.07;3.92;;;20.50;95.70;;;;;;4974018;28;20023;-74
2021/09/25 09:23:17;;;;;;;12.63;5.28;;;20.40;95.80;;;;;;4973191;28;20038;-73
2021/09/25 09:25:43;;;;;;;10.80;4.60;;;20.30;96.00;;;;;;4973219;28;20041;-73
2021/09/25 09:28:26;;;;;;;8.27;4.80;;;20.20;96.00;;;;;;4973115;28;20034;-71
2021/09/25 09:30:54;;;;;;;11.55;4.15;;;20.40;96.10;;;;;;4973072;28;20354;-72
2021/09/25 09:33:27;;;;;;;9.38;4.32;;;20.40;95.90;;;;;;4972991;28;20034;-72
2021/09/25 09:35:53;;;;;;;11.20;3.85;;;20.40;95.90;;;;;;4972564;28;20042;-72
2021/09/25 09:38:23;;;;;;;10.00;4.32;;;20.50;96.00;;;;;;4972759;28;20035;-73
2021/09/25 09:40:55;;;;;;;8.98;4.13;;;20.60;95.70;;;;;;4972006;28;20046;-72
2021/09/25 09:43:21;;;;;;;8.85;4.18;;;20.80;96.00;;;;;;4973215;28;20035;-72
2021/09/25 09:45:46;;;;;;;12.43;4.63;;;20.80;95.80;;;;;;4972722;28;20484;-71
2021/09/25 09:48:12;;;;;;;9.98;4.80;;;20.90;95.50;;;;;;4972565;28;20457;-73
2021/09/25 09:50:41;;;;;;;12.23;4.07;;;20.90;95.40;;;;;;4973233;28;20045;-71
2021/09/25 09:53:14;;;;;;;15.35;4.50;;;21.10;96.00;;;;;;4972589;28;20306;-72
2021/09/25 09:55:40;;;;;;;8.13;3.75;;;21.00;95.50;;;;;;4971407;28;20388;-72
2021/09/25 09:58:06;;;;;;;21.88;3.83;;;21.00;95.80;;;;;;4973102;28;20122;-70
2021/09/25 10:00:33;;;;;;;13.77;3.67;;;21.10;95.90;;;;;;4972415;28;20122;-70
2021/09/25 10:03:00;;;;;;;10.50;4.30;;;21.20;95.90;;;;;;4972780;28;20019;-70
2021/09/25 10:05:26;;;;;;;8.50;4.00;;;21.30;95.60;;;;;;4972405;28;20113;-70
2021/09/25 10:07:52;;;;;;;13.27;4.75;;;21.40;95.60;;;;;;4972163;28;20082;-69
2021/09/25 10:10:17;;;;;;;13.30;4.80;;;21.40;95.30;;;;;;4969071;28;20062;-69
2021/09/25 10:12:44;;;;;;;13.18;5.03;;;21.30;95.20;;;;;;4977347;28;20209;-71
2021/09/25 10:15:11;;;;;;;11.50;4.28;;;21.30;95.30;;;;;;4991944;28;20034;-70
2021/09/25 10:17:36;;;;;;;12.77;4.43;;;21.30;95.20;;;;;;4992406;28;20113;-71
2021/09/25 10:20:03;;;;;;;10.80;4.20;;;21.30;95.20;;;;;;4991899;28;20426;-71
2021/09/25 10:22:32;;;;;;;7.85;4.18;;;21.30;95.10;;;;;;4991984;28;20352;-70
2021/09/25 10:25:01;;;;;;;10.63;4.75;;;21.30;95.20;;;;;;4991033;28;20302;-70
2021/09/25 10:27:32;;;;;;;13.75;4.60;;;21.40;95.10;;;;;;4991907;28;20582;-71
2021/09/25 10:30:00;;;;;;;9.68;4.18;;;21.80;95.20;;;;;;4991999;28;20041;-72
2021/09/25 10:32:29;;;;;;;8.30;4.00;;;22.10;94.70;;;;;;4991932;28;20101;-72
2021/09/25 10:35:00;;;;;;;7.72;3.63;;;22.40;94.60;;;;;;4991566;28;20026;-72
2021/09/25 10:37:33;;;;;;;9.38;4.32;;;22.40;94.30;;;;;;4991561;28;20480;-71
2021/09/25 10:39:58;;;;;;;7.82;4.30;;;22.20;94.00;;;;;;4991197;28;20038;-72
2021/09/25 10:43:05;;;;;;;10.40;4.18;;;22.10;94.20;;;;;;4991613;28;20048;-70
2021/09/25 10:45:34;;;;;;;16.30;9.70;;;21.90;94.20;;;;;;4990520;28;20121;-72
2021/09/25 10:48:09;;;;;;;9.18;4.68;;;21.80;94.30;;;;;;4991774;28;20033;-72
2021/09/25 10:50:45;;;;;;;8.07;3.63;;;21.80;94.40;;;;;;4991251;28;20142;-71
2021/09/25 10:53:14;;;;;;;12.80;3.58;;;21.80;94.10;;;;;;4991346;28;20050;-72
2021/09/25 10:55:43;;;;;;;11.30;4.88;;;22.00;94.20;;;;;;4991185;28;20022;-71
2021/09/25 10:58:20;;;;;;;12.80;4.90;;;22.20;94.10;;;;;;4991304;28;20110;-71
2021/09/25 11:00:55;;;;;;;10.48;6.18;;;22.70;93.70;;;;;;4991029;28;20035;-71
2021/09/25 11:03:43;;;;;;;12.75;4.93;;;23.00;93.20;;;;;;4991283;28;20449;-71
2021/09/25 11:06:14;;;;;;;9.02;3.25;;;23.50;92.80;;;;;;4991481;28;20027;-71
2021/09/25 11:08:51;;;;;;;9.50;3.60;;;24.00;91.70;;;;;;4991391;28;20026;-71
2021/09/25 11:11:29;;;;;;;8.93;3.58;;;23.90;91.40;;;;;;4991242;28;20031;-71
2021/09/25 11:13:54;;;;;;;;;;;23.80;91.50;;;;;;4991801;28;20026;-71
2021/09/25 11:16:43;;;;;;;10.88;3.80;;;23.90;92.20;;;;;;4991303;28;19937;-71
2021/09/25 11:19:09;;;;;;;8.63;3.17;;;24.40;91.10;;;;;;4990962;28;20031;-72
2021/09/25 11:21:35;;;;;;;10.85;3.00;;;24.60;91.30;;;;;;4991027;28;20089;-70
2021/09/25 11:24:00;;;;;;;9.75;3.03;;;24.50;90.80;;;;;;4991299;28;20034;-71
2021/09/25 11:26:26;;;;;;;8.30;3.75;;;24.50;90.60;;;;;;4990965;28;20122;-71
2021/09/25 11:28:52;;;;;;;7.30;3.20;;;24.40;90.50;;;;;;4990960;28;20034;-70
2021/09/25 11:31:17;;;;;;;6.03;2.90;;;24.40;90.70;;;;;;4990954;28;20030;-70
2021/09/25 11:33:43;;;;;;;6.78;3.20;;;24.20;90.60;;;;;;4990971;28;20429;-70
2021/09/25 11:36:10;;;;;;;9.50;4.47;;;24.00;90.80;;;;;;4990812;28;20204;-71
2021/09/25 11:38:45;;;;;;;5.43;3.23;;;24.10;91.10;;;;;;4994810;28;20375;-71
2021/09/25 11:41:15;;;;;;;8.20;3.58;;;24.30;90.90;;;;;;4994540;28;20037;-70
2021/09/25 11:43:42;;;;;;;7.07;3.28;;;24.50;90.60;;;;;;4994388;28;20092;-71
2021/09/25 11:46:09;;;;;;;4.35;3.17;;;24.40;90.10;;;;;;4994228;28;20031;-71
2021/09/25 11:48:35;;;;;;;8.18;4.10;;;24.20;90.60;;;;;;4994136;28;20453;-71
2021/09/25 11:51:04;;;;;;;11.07;4.00;;;24.00;90.60;;;;;;4994506;28;20026;-72
2021/09/25 11:53:31;;;;;;;8.77;3.42;;;23.90;90.80;;;;;;4994107;28;20038;-70
2021/09/25 11:55:58;;;;;;;8.75;3.08;;;23.90;90.80;;;;;;4994105;28;20162;-70
2021/09/25 11:58:24;;;;;;;8.63;2.92;;;23.80;91.20;;;;;;4994095;28;20035;-70
2021/09/25 12:00:56;;;;;;;10.25;3.55;;;23.90;91.20;;;;;;4985253;28;20039;-71
2021/09/25 12:03:24;;;;;;;7.30;3.17;;;23.70;91.00;;;;;;4974834;28;20015;-70
2021/09/25 12:05:52;;;;;;;7.78;3.05;;;23.60;91.20;;;;;;4975594;28;20054;-69
2021/09/25 12:08:29;;;;;;;9.20;3.83;;;23.60;91.30;;;;;;4973461;28;20250;-72
2021/09/25 12:11:03;;;;;;;13.35;3.50;;;23.50;91.60;;;;;;4974297;28;20089;-71
2021/09/25 12:13:31;;;;;;;10.63;3.03;;;23.70;91.40;;;;;;4974295;28;20031;-71
2021/09/25 12:16:02;;;;;;;9.82;3.40;;;23.90;91.50;;;;;;4974059;28;20057;-71
2021/09/25 12:18:38;;;;;;;6.53;3.40;;;23.90;91.40;;;;;;4974435;28;20039;-73
2021/09/25 12:21:06;;;;;;;4.88;2.83;;;24.00;91.10;;;;;;4974534;28;20069;-71
2021/09/25 12:23:32;;;;;;;5.45;3.00;;;24.10;91.20;;;;;;4974812;28;20030;-71
2021/09/25 12:25:59;;;;;;;8.68;2.80;;;24.30;90.90;;;;;;4974303;28;20030;-70
2021/09/25 12:28:25;;;;;;;9.80;2.97;;;24.20;90.80;;;;;;4974333;28;20062;-69
2021/09/25 12:30:53;;;;;;;6.88;3.33;;;24.00;90.90;;;;;;4973946;28;20046;-70
2021/09/25 12:33:19;;;;;;;;;;;24.10;90.90;;;;;;4974520;28;20030;-69
2021/09/25 12:36:03;;;;;;;9.73;6.22;;;24.00;90.90;;;;;;4973564;28;20360;-71